Mercur 205 — YP2630 — position and weather

sailwx.info

Track history (hours):
 
Tides and Currents Weather Stations Pressure Air Temp Water Temp Dewpoint Dewpoint Depression Visibility Wind Speed Wind Dir Waves Ship Positions

Mercur 205

Last reported at 2018-Feb-16 12:21 UTC. Time now 2018-Feb-21 01:41 UTC.
Position N 48°11' E 016°28'.

Length 34 m; draft 2.1 m.

Type: Ship. MMSI: 264162630.

Date/timePositionNaut miles runAvg speedWind from/ knotsBaromVisibWave heightAir tempDewpointWater temp
2018-Feb-16 12:21N 48°11' E 016°28'11 2.9
2018-Feb-16 08:23N 48°08' E 016°44'4 3.1
2018-Feb-16 07:08N 48°07' E 016°50'0 2.7
2018-Feb-16 07:00N 48°07' E 016°50'2 3.3
2018-Feb-16 06:24N 48°08' E 016°53'1 3.2
2018-Feb-16 06:00N 48°09' E 016°54'1 3.0
2018-Feb-16 05:30N 48°09' E 016°57'2 3.0
2018-Feb-16 05:00N 48°10' E 016°58'1 2.6
2018-Feb-16 04:30N 48°10' E 016°60'1 2.9
2018-Feb-16 04:00N 48°09' E 017°01'1 2.6
2018-Feb-16 03:30N 48°09' E 017°03'2 3.1
2018-Feb-16 03:00N 48°08' E 017°05'2 3.7
2018-Feb-16 02:30N 48°08' E 017°08'2 3.9
2018-Feb-16 02:00N 48°06' E 017°08'3 5.9
2018-Feb-16 01:30N 48°04' E 017°10'3 6.4
2018-Feb-16 01:00N 48°02' E 017°14'3 6.8
2018-Feb-16 00:30N 48°00' E 017°19'4 7.1
2018-Feb-16 00:00N 47°59' E 017°23'4 7.4
2018-Feb-15 23:30N 47°56' E 017°27'4 7.4
2018-Feb-15 23:00N 47°54' E 017°32'1 1.8
2018-Feb-15 22:30N 47°53' E 017°32'1 1.2
2018-Feb-15 22:00N 47°52' E 017°33'4 5.8
2018-Feb-15 21:18N 47°49' E 017°37'2 5.3
2018-Feb-15 21:00N 47°48' E 017°38'7 0.8
2018-Feb-15 12:34N 47°44' E 017°47'3 7.9
2018-Feb-15 12:13N 47°45' E 017°43'2 8.2
2018-Feb-15 11:56N 47°47' E 017°40'4 7.9
2018-Feb-15 11:29N 47°49' E 017°36'3 6.9
2018-Feb-15 11:00N 47°52' E 017°33'1 2.2
2018-Feb-15 10:30N 47°53' E 017°32'0 0.0
2018-Feb-15 10:00N 47°53' E 017°32'1 1.3
2018-Feb-15 09:30N 47°53' E 017°32'1 2.5
2018-Feb-15 09:00N 47°54' E 017°30'2 4.4
2018-Feb-15 08:30N 47°56' E 017°28'2 3.9
2018-Feb-15 08:00N 47°57' E 017°26'3 6.6
2018-Feb-15 07:30N 47°59' E 017°22'3 6.5
2018-Feb-15 07:00N 48°00' E 017°18'3 6.5
2018-Feb-15 06:30N 48°02' E 017°14'3 7.0
2018-Feb-15 06:00N 48°04' E 017°10'1 2.2
2018-Feb-15 05:30N 48°05' E 017°09'0 0.0
2018-Feb-15 05:00N 48°05' E 017°09'0 0.2
2018-Feb-15 04:30N 48°05' E 017°09'0 0.0
2018-Feb-15 03:58N 48°05' E 017°09'0 0.0
2018-Feb-15 03:28N 48°05' E 017°09'0 0.0
2018-Feb-15 02:58N 48°05' E 017°09'0 0.0
2018-Feb-15 02:25N 48°05' E 017°09'0 0.0
2018-Feb-15 01:58N 48°05' E 017°09'0 0.0
2018-Feb-15 01:25N 48°05' E 017°09'0 0.0
2018-Feb-15 00:55N 48°05' E 017°09'0 0.0
2018-Feb-15 00:28N 48°05' E 017°09'1 1.6
2018-Feb-15 00:00N 48°06' E 017°08'2 4.9
2018-Feb-14 23:30N 48°08' E 017°08'0 0.0
2018-Feb-14 23:00N 48°08' E 017°08'0 0.0
2018-Feb-14 22:30N 48°08' E 017°08'0 0.0
2018-Feb-14 22:00N 48°08' E 017°08'0 0.0
2018-Feb-14 21:30N 48°08' E 017°08'0 0.0
2018-Feb-14 21:00N 48°08' E 017°08'0 0.0
2018-Feb-14 20:30N 48°08' E 017°08'0 0.0
2018-Feb-14 20:00N 48°08' E 017°08'1 1.1
2018-Feb-14 19:30N 48°08' E 017°08'1 2.4
2018-Feb-14 19:00N 48°07' E 017°08'2 3.0
2018-Feb-14 18:30N 48°05' E 017°09'0 0.0
2018-Feb-14 18:00N 48°05' E 017°09'0 0.0
2018-Feb-14 17:30N 48°05' E 017°09'0 0.0
2018-Feb-14 17:00N 48°05' E 017°09'0 0.0
2018-Feb-14 16:30N 48°05' E 017°09'1 2.9
2018-Feb-14 16:00N 48°07' E 017°08'4 7.1
2018-Feb-14 15:30N 48°09' E 017°04'5 8.9
2018-Feb-14 15:00N 48°10' E 016°58'19 4.0
2018-Feb-14 10:15N 48°10' E 016°29'1 1.3
2018-Feb-14 09:50N 48°11' E 016°29'1 2.0
2018-Feb-14 09:30N 48°11' E 016°28'0 0.3
2018-Feb-14 08:40N 48°11' E 016°28'11 2.7
2018-Feb-14 04:22N 48°08' E 016°44'3 3.1
2018-Feb-14 03:18N 48°07' E 016°49'1 2.8
2018-Feb-14 03:00N 48°07' E 016°50'2 3.3
2018-Feb-14 02:26N 48°08' E 016°53'1 2.9
2018-Feb-14 02:00N 48°09' E 016°54'1 2.4
2018-Feb-14 01:30N 48°09' E 016°56'1 3.0
2018-Feb-14 01:00N 48°10' E 016°57'1 2.7
2018-Feb-14 00:30N 48°10' E 016°59'2 3.5
2018-Feb-14 00:00N 48°09' E 017°01'2 3.4
2018-Feb-13 23:30N 48°09' E 017°04'2 4.4
2018-Feb-13 23:00N 48°08' E 017°07'2 3.4
2018-Feb-13 22:30N 48°07' E 017°08'2 4.0
2018-Feb-13 22:00N 48°05' E 017°09'0 0.2
2018-Feb-13 21:30N 48°05' E 017°09'0 0.8
2018-Feb-13 21:00N 48°05' E 017°09'3 5.8
2018-Feb-13 20:30N 48°08' E 017°08'5 9.5
2018-Feb-13 20:00N 48°09' E 017°01'4 7.4
2018-Feb-13 19:30N 48°09' E 016°56'18 7.6
2018-Feb-13 17:08N 48°11' E 016°29'0 2.2
2018-Feb-13 16:58N 48°11' E 016°28'0 0.0
2018-Feb-12 07:11N 48°10' E 016°29'0 0.0
2018-Feb-12 04:53N 48°10' E 016°29'0 0.0
2018-Feb-12 03:28N 48°10' E 016°29'0 0.0
2018-Feb-12 02:31N 48°10' E 016°29'0 0.0
2018-Feb-12 02:10N 48°10' E 016°29'0 0.0
2018-Feb-12 01:42N 48°10' E 016°29'0 0.0
2018-Feb-12 01:18N 48°10' E 016°29'0 0.0
2018-Feb-11 08:23N 48°10' E 016°29'0 1.1
2018-Feb-11 08:00N 48°11' E 016°29'  
Track history (hours):
 
Tides and Currents Weather Stations Pressure Air Temp Water Temp Dewpoint Dewpoint Depression Visibility Wind Speed Wind Dir Waves Ship Positions

Mercur 205

Last reported at 2018-Feb-16 12:21 UTC. Time now 2018-Feb-21 01:41 UTC.
Position N 48°11' E 016°28'.

Length 34 m; draft 2.1 m.

Type: Ship. MMSI: 264162630.

Date/timePositionNaut miles runAvg speedWind from/ knotsBaromVisibWave heightAir tempDewpointWater temp
2018-Feb-16 12:21N 48°11' E 016°28'11 2.9
2018-Feb-16 08:23N 48°08' E 016°44'4 3.1
2018-Feb-16 07:08N 48°07' E 016°50'0 2.7
2018-Feb-16 07:00N 48°07' E 016°50'2 3.3
2018-Feb-16 06:24N 48°08' E 016°53'1 3.2
2018-Feb-16 06:00N 48°09' E 016°54'1 3.0
2018-Feb-16 05:30N 48°09' E 016°57'2 3.0
2018-Feb-16 05:00N 48°10' E 016°58'1 2.6
2018-Feb-16 04:30N 48°10' E 016°60'1 2.9
2018-Feb-16 04:00N 48°09' E 017°01'1 2.6
2018-Feb-16 03:30N 48°09' E 017°03'2 3.1
2018-Feb-16 03:00N 48°08' E 017°05'2 3.7
2018-Feb-16 02:30N 48°08' E 017°08'2 3.9
2018-Feb-16 02:00N 48°06' E 017°08'3 5.9
2018-Feb-16 01:30N 48°04' E 017°10'3 6.4
2018-Feb-16 01:00N 48°02' E 017°14'3 6.8
2018-Feb-16 00:30N 48°00' E 017°19'4 7.1
2018-Feb-16 00:00N 47°59' E 017°23'4 7.4
2018-Feb-15 23:30N 47°56' E 017°27'4 7.4
2018-Feb-15 23:00N 47°54' E 017°32'1 1.8
2018-Feb-15 22:30N 47°53' E 017°32'1 1.2
2018-Feb-15 22:00N 47°52' E 017°33'4 5.8
2018-Feb-15 21:18N 47°49' E 017°37'2 5.3
2018-Feb-15 21:00N 47°48' E 017°38'7 0.8
2018-Feb-15 12:34N 47°44' E 017°47'3 7.9
2018-Feb-15 12:13N 47°45' E 017°43'2 8.2
2018-Feb-15 11:56N 47°47' E 017°40'4 7.9
2018-Feb-15 11:29N 47°49' E 017°36'3 6.9
2018-Feb-15 11:00N 47°52' E 017°33'1 2.2
2018-Feb-15 10:30N 47°53' E 017°32'0 0.0
2018-Feb-15 10:00N 47°53' E 017°32'1 1.3
2018-Feb-15 09:30N 47°53' E 017°32'1 2.5
2018-Feb-15 09:00N 47°54' E 017°30'2 4.4
2018-Feb-15 08:30N 47°56' E 017°28'2 3.9
2018-Feb-15 08:00N 47°57' E 017°26'3 6.6
2018-Feb-15 07:30N 47°59' E 017°22'3 6.5
2018-Feb-15 07:00N 48°00' E 017°18'3 6.5
2018-Feb-15 06:30N 48°02' E 017°14'3 7.0
2018-Feb-15 06:00N 48°04' E 017°10'1 2.2
2018-Feb-15 05:30N 48°05' E 017°09'0 0.0
2018-Feb-15 05:00N 48°05' E 017°09'0 0.2
2018-Feb-15 04:30N 48°05' E 017°09'0 0.0
2018-Feb-15 03:58N 48°05' E 017°09'0 0.0
2018-Feb-15 03:28N 48°05' E 017°09'0 0.0
2018-Feb-15 02:58N 48°05' E 017°09'0 0.0
2018-Feb-15 02:25N 48°05' E 017°09'0 0.0
2018-Feb-15 01:58N 48°05' E 017°09'0 0.0
2018-Feb-15 01:25N 48°05' E 017°09'0 0.0
2018-Feb-15 00:55N 48°05' E 017°09'0 0.0
2018-Feb-15 00:28N 48°05' E 017°09'1 1.6
2018-Feb-15 00:00N 48°06' E 017°08'2 4.9
2018-Feb-14 23:30N 48°08' E 017°08'0 0.0
2018-Feb-14 23:00N 48°08' E 017°08'0 0.0
2018-Feb-14 22:30N 48°08' E 017°08'0 0.0
2018-Feb-14 22:00N 48°08' E 017°08'0 0.0
2018-Feb-14 21:30N 48°08' E 017°08'0 0.0
2018-Feb-14 21:00N 48°08' E 017°08'0 0.0
2018-Feb-14 20:30N 48°08' E 017°08'0 0.0
2018-Feb-14 20:00N 48°08' E 017°08'1 1.1
2018-Feb-14 19:30N 48°08' E 017°08'1 2.4
2018-Feb-14 19:00N 48°07' E 017°08'2 3.0
2018-Feb-14 18:30N 48°05' E 017°09'0 0.0
2018-Feb-14 18:00N 48°05' E 017°09'0 0.0
2018-Feb-14 17:30N 48°05' E 017°09'0 0.0
2018-Feb-14 17:00N 48°05' E 017°09'0 0.0
2018-Feb-14 16:30N 48°05' E 017°09'1 2.9
2018-Feb-14 16:00N 48°07' E 017°08'4 7.1
2018-Feb-14 15:30N 48°09' E 017°04'5 8.9
2018-Feb-14 15:00N 48°10' E 016°58'19 4.0
2018-Feb-14 10:15N 48°10' E 016°29'1 1.3
2018-Feb-14 09:50N 48°11' E 016°29'1 2.0
2018-Feb-14 09:30N 48°11' E 016°28'0 0.3
2018-Feb-14 08:40N 48°11' E 016°28'11 2.7
2018-Feb-14 04:22N 48°08' E 016°44'3 3.1
2018-Feb-14 03:18N 48°07' E 016°49'1 2.8
2018-Feb-14 03:00N 48°07' E 016°50'2 3.3
2018-Feb-14 02:26N 48°08' E 016°53'1 2.9
2018-Feb-14 02:00N 48°09' E 016°54'1 2.4
2018-Feb-14 01:30N 48°09' E 016°56'1 3.0
2018-Feb-14 01:00N 48°10' E 016°57'1 2.7
2018-Feb-14 00:30N 48°10' E 016°59'2 3.5
2018-Feb-14 00:00N 48°09' E 017°01'2 3.4
2018-Feb-13 23:30N 48°09' E 017°04'2 4.4
2018-Feb-13 23:00N 48°08' E 017°07'2 3.4
2018-Feb-13 22:30N 48°07' E 017°08'2 4.0
2018-Feb-13 22:00N 48°05' E 017°09'0 0.2
2018-Feb-13 21:30N 48°05' E 017°09'0 0.8
2018-Feb-13 21:00N 48°05' E 017°09'3 5.8
2018-Feb-13 20:30N 48°08' E 017°08'5 9.5
2018-Feb-13 20:00N 48°09' E 017°01'4 7.4
2018-Feb-13 19:30N 48°09' E 016°56'18 7.6
2018-Feb-13 17:08N 48°11' E 016°29'0 2.2
2018-Feb-13 16:58N 48°11' E 016°28'0 0.0
2018-Feb-12 07:11N 48°10' E 016°29'0 0.0
2018-Feb-12 04:53N 48°10' E 016°29'0 0.0
2018-Feb-12 03:28N 48°10' E 016°29'0 0.0
2018-Feb-12 02:31N 48°10' E 016°29'0 0.0
2018-Feb-12 02:10N 48°10' E 016°29'0 0.0
2018-Feb-12 01:42N 48°10' E 016°29'0 0.0
2018-Feb-12 01:18N 48°10' E 016°29'0 0.0
2018-Feb-11 08:23N 48°10' E 016°29'0 1.1
2018-Feb-11 08:00N 48°11' E 016°29'  

Dump ship's entire track history